Time;durP1;ratioP1;P1;durP2;ratioP2;P2;SDS_P1;SDS_P2;PMS_P1;PMS_P2;Temp;Humidity;BMP_temperature;BMP_pressure;BME280_temperature;BME280_humidity;BME280_pressure;Samples;Min_cycle;Max_cycle;Signal;HPM_P1;HPM_P2
2023/01/08 00:01:22;;;;;;;177.70;88.97;;;1.50;99.90;;;;;;5060193;28;20022;-79
2023/01/08 00:03:48;;;;;;;156.27;83.10;;;1.60;99.90;;;;;;4992576;28;20515;-79
2023/01/08 00:06:17;;;;;;;105.90;60.58;;;1.60;99.90;;;;;;5060086;28;20023;-79
2023/01/08 00:08:43;;;;;;;79.45;46.58;;;1.60;99.90;;;;;;4992738;28;20022;-79
2023/01/08 00:11:09;;;;;;;70.00;40.78;;;1.60;99.90;;;;;;4992279;28;20050;-79
2023/01/08 00:13:35;;;;;;;70.30;40.50;;;1.60;99.90;;;;;;4992396;28;20026;-77
2023/01/08 00:16:13;;;;;;;66.53;38.10;;;1.60;99.90;;;;;;5060285;28;20502;-78
2023/01/08 00:18:39;;;;;;;64.20;35.75;;;1.60;99.90;;;;;;5059737;28;20053;-78
2023/01/08 00:21:05;;;;;;;68.57;37.47;;;1.70;99.90;;;;;;5059844;28;20643;-78
2023/01/08 00:23:31;;;;;;;69.03;36.78;;;1.70;99.90;;;;;;4992366;28;20034;-79
2023/01/08 00:26:01;;;;;;;69.35;38.95;;;1.70;99.90;;;;;;4992364;28;20026;-79
2023/01/08 00:28:26;;;;;;;80.28;42.47;;;1.70;99.90;;;;;;5035645;28;20507;-77
2023/01/08 00:30:52;;;;;;;59.83;35.85;;;1.80;99.90;;;;;;4991091;28;20018;-77
2023/01/08 00:33:17;;;;;;;169.02;70.93;;;1.80;99.90;;;;;;4992158;28;20559;-77
2023/01/08 00:35:43;;;;;;;152.40;64.38;;;1.80;99.90;;;;;;4974734;28;20052;-77
2023/01/08 00:38:09;;;;;;;151.63;64.78;;;1.90;99.90;;;;;;4980941;28;20030;-77
2023/01/08 00:40:35;;;;;;;122.93;57.40;;;2.00;99.90;;;;;;4991678;28;20023;-77
2023/01/08 00:43:01;;;;;;;87.07;46.95;;;2.00;99.90;;;;;;4991618;28;20040;-77
2023/01/08 00:45:26;;;;;;;84.47;43.30;;;2.00;99.90;;;;;;4992165;28;20046;-78
2023/01/08 00:47:52;;;;;;;66.07;36.80;;;2.10;99.90;;;;;;5092717;28;20036;-77
2023/01/08 00:50:17;;;;;;;77.90;42.30;;;2.10;99.90;;;;;;5094304;28;20016;-78
2023/01/08 00:52:43;;;;;;;99.15;51.55;;;2.10;99.90;;;;;;5076921;28;20480;-77
2023/01/08 00:55:09;;;;;;;109.70;52.80;;;2.10;99.90;;;;;;5095122;28;20059;-78
2023/01/08 00:57:36;;;;;;;98.15;49.33;;;2.20;99.90;;;;;;5076921;28;20024;-78
2023/01/08 01:00:04;;;;;;;80.75;41.88;;;2.30;99.90;;;;;;5076952;28;20016;-78
2023/01/08 01:02:29;;;;;;;98.95;43.45;;;2.30;99.90;;;;;;5094598;28;20071;-77
2023/01/08 01:04:55;;;;;;;58.88;32.45;;;2.30;99.90;;;;;;5094891;28;20129;-78
2023/01/08 01:07:21;;;;;;;142.15;61.28;;;2.30;99.90;;;;;;5076720;28;20020;-78
2023/01/08 01:09:46;;;;;;;106.05;50.88;;;2.40;99.90;;;;;;5012776;28;20034;-77
2023/01/08 01:12:12;;;;;;;74.97;39.85;;;2.40;99.90;;;;;;4992165;28;20119;-77
2023/01/08 01:14:38;;;;;;;61.38;34.25;;;2.40;99.90;;;;;;4992337;28;20026;-77
2023/01/08 01:17:04;;;;;;;65.13;36.50;;;2.40;99.90;;;;;;4974710;28;20022;-77
2023/01/08 01:19:29;;;;;;;76.30;43.33;;;2.40;99.90;;;;;;4992183;28;20030;-77
2023/01/08 01:21:55;;;;;;;76.00;40.70;;;2.40;99.90;;;;;;4974831;28;20031;-77
2023/01/08 01:24:23;;;;;;;125.45;47.35;;;2.50;99.90;;;;;;4992032;28;20137;-77
2023/01/08 01:26:50;;;;;;;128.13;50.63;;;2.50;99.90;;;;;;4992003;28;20026;-77
2023/01/08 01:29:15;;;;;;;139.40;64.15;;;2.50;99.90;;;;;;5034420;28;20063;-78
2023/01/08 01:31:41;;;;;;;85.63;48.60;;;2.50;99.90;;;;;;4992045;28;20026;-78
2023/01/08 01:34:07;;;;;;;61.20;34.25;;;2.50;99.90;;;;;;5012861;28;20027;-77
2023/01/08 01:36:33;;;;;;;59.85;35.88;;;2.50;99.90;;;;;;4979127;28;20055;-78
2023/01/08 01:38:59;;;;;;;46.70;29.73;;;2.50;99.90;;;;;;4986448;28;20435;-79
2023/01/08 01:41:39;;;;;;;51.40;30.35;;;2.50;99.90;;;;;;4991694;28;20026;-77
2023/01/08 01:44:33;;;;;;;56.50;33.58;;;2.50;99.90;;;;;;4963635;28;20058;-78
2023/01/08 01:46:59;;;;;;;;;;;2.50;99.90;;;;;;4973179;28;20476;-78
2023/01/08 01:49:26;;;;;;;43.53;26.27;;;2.50;99.90;;;;;;4955064;28;19929;-79
2023/01/08 01:51:55;;;;;;;74.22;39.45;;;2.40;99.90;;;;;;4955363;28;20087;-79
2023/01/08 01:54:21;;;;;;;75.07;40.40;;;2.40;99.90;;;;;;4972257;28;20035;-79
2023/01/08 01:56:47;;;;;;;56.38;30.77;;;2.40;99.90;;;;;;4955155;28;20031;-77
2023/01/08 01:59:14;;;;;;;51.65;29.77;;;2.30;99.90;;;;;;4972342;28;20027;-78
2023/01/08 02:01:41;;;;;;;51.30;29.95;;;2.20;99.90;;;;;;4955185;28;20061;-77
2023/01/08 02:04:10;;;;;;;47.95;27.60;;;2.20;99.90;;;;;;4954216;28;20054;-78
2023/01/08 02:06:52;;;;;;;46.38;26.48;;;2.10;99.90;;;;;;4955121;28;20026;-78
2023/01/08 02:09:29;;;;;;;47.20;25.90;;;2.10;99.90;;;;;;4972183;28;20422;-79
2023/01/08 02:12:17;;;;;;;60.35;32.65;;;2.10;99.90;;;;;;4954660;28;20295;-78
2023/01/08 02:14:58;;;;;;;56.80;31.33;;;2.10;99.90;;;;;;4972158;28;20023;-79
2023/01/08 02:17:34;;;;;;;55.67;33.75;;;2.10;99.90;;;;;;4954590;28;20097;-78
2023/01/08 02:20:26;;;;;;;58.38;34.40;;;2.00;99.90;;;;;;4972156;28;20499;-77
2023/01/08 02:22:55;;;;;;;56.05;33.50;;;2.00;99.90;;;;;;4954473;28;20015;-78
2023/01/08 02:25:29;;;;;;;57.78;33.10;;;2.00;99.90;;;;;;4967940;28;20043;-78
2023/01/08 02:27:57;;;;;;;67.20;38.33;;;2.00;99.90;;;;;;4991320;28;20057;-78
2023/01/08 02:30:24;;;;;;;76.95;43.35;;;1.90;99.90;;;;;;5058453;28;20026;-78
2023/01/08 02:32:49;;;;;;;56.97;34.10;;;1.90;99.90;;;;;;5044932;28;20396;-77
2023/01/08 02:35:15;;;;;;;49.55;29.20;;;1.90;99.90;;;;;;4972021;28;20030;-78
2023/01/08 02:37:41;;;;;;;59.95;33.67;;;1.90;99.90;;;;;;4973768;28;20019;-78
2023/01/08 02:40:13;;;;;;;53.47;31.25;;;1.90;99.90;;;;;;4989890;28;20072;-78
2023/01/08 02:42:59;;;;;;;67.20;37.80;;;1.80;99.90;;;;;;4987474;28;20110;-78
2023/01/08 02:45:35;;;;;;;53.75;30.20;;;1.80;99.90;;;;;;4954340;28;20515;-79
2023/01/08 02:48:10;;;;;;;46.80;26.90;;;1.80;99.90;;;;;;4954237;28;20019;-77
2023/01/08 02:50:41;;;;;;;47.03;27.27;;;1.70;99.90;;;;;;4971645;28;20384;-78
2023/01/08 02:53:20;;;;;;;51.88;30.27;;;1.70;99.90;;;;;;4953262;28;20038;-79
2023/01/08 02:55:58;;;;;;;35.20;21.95;;;1.60;99.90;;;;;;4954325;28;20077;-78
2023/01/08 02:58:26;;;;;;;35.03;22.33;;;1.60;99.90;;;;;;4971422;28;20054;-77
2023/01/08 03:00:53;;;;;;;36.42;23.13;;;1.60;99.90;;;;;;4954319;28;20026;-79
2023/01/08 03:03:23;;;;;;;36.97;22.83;;;1.60;99.90;;;;;;4971253;28;20045;-77
2023/01/08 03:05:52;;;;;;;48.30;28.02;;;1.60;99.90;;;;;;4971401;28;20037;-78
2023/01/08 03:08:19;;;;;;;67.47;39.35;;;1.50;99.90;;;;;;4953853;28;20026;-77
2023/01/08 03:10:50;;;;;;;32.45;21.15;;;1.50;99.90;;;;;;4971328;28;20105;-79
2023/01/08 03:13:53;;;;;;;37.53;25.40;;;1.50;99.90;;;;;;4953799;28;20031;-78
2023/01/08 03:16:24;;;;;;;;;;;1.50;99.90;;;;;;4945910;28;20134;-78
2023/01/08 03:18:53;;;;;;;37.40;24.30;;;1.40;99.90;;;;;;4971179;28;19907;-77
2023/01/08 03:21:21;;;;;;;41.67;25.75;;;1.40;99.90;;;;;;4953960;28;20019;-77
2023/01/08 03:23:49;;;;;;;35.55;23.35;;;1.30;99.90;;;;;;4953629;28;20031;-78
2023/01/08 03:26:20;;;;;;;41.00;25.35;;;1.30;99.90;;;;;;4953927;28;20019;-78
2023/01/08 03:28:51;;;;;;;42.80;22.95;;;1.20;99.90;;;;;;4982264;28;20030;-78
2023/01/08 03:31:18;;;;;;;40.05;23.13;;;1.20;99.90;;;;;;4990629;28;20457;-78
2023/01/08 03:33:45;;;;;;;35.55;22.10;;;1.20;99.90;;;;;;4972922;28;20496;-78
2023/01/08 03:36:15;;;;;;;36.28;23.15;;;1.20;99.90;;;;;;4990531;28;20029;-77
2023/01/08 03:38:49;;;;;;;35.15;21.75;;;1.20;99.90;;;;;;4980132;28;20026;-79
2023/01/08 03:41:20;;;;;;;37.45;23.85;;;1.20;99.90;;;;;;4974480;28;20019;-78
2023/01/08 03:43:45;;;;;;;40.47;23.55;;;1.20;99.90;;;;;;4951962;28;20023;-78
2023/01/08 03:46:15;;;;;;;36.42;21.35;;;1.20;99.90;;;;;;4970399;28;20490;-78
2023/01/08 03:48:42;;;;;;;35.95;22.90;;;1.20;99.90;;;;;;4970702;28;20023;-78
2023/01/08 03:51:09;;;;;;;33.90;21.73;;;1.20;99.90;;;;;;4952323;28;20038;-77
2023/01/08 03:53:34;;;;;;;32.58;21.65;;;1.20;99.90;;;;;;4953340;28;20105;-78
2023/01/08 03:56:00;;;;;;;33.65;20.73;;;1.10;99.90;;;;;;4953797;28;20118;-78
2023/01/08 03:58:26;;;;;;;38.00;21.42;;;1.10;99.90;;;;;;4970664;28;20034;-78
2023/01/08 04:00:51;;;;;;;38.35;23.10;;;1.00;99.90;;;;;;4970839;28;20023;-79
2023/01/08 04:03:17;;;;;;;34.65;22.17;;;1.00;99.90;;;;;;4970517;28;20036;-78
2023/01/08 04:05:43;;;;;;;36.13;21.50;;;1.00;99.90;;;;;;4973708;28;20046;-78
2023/01/08 04:08:09;;;;;;;67.57;36.03;;;0.90;99.90;;;;;;5057625;28;20026;-78
2023/01/08 04:10:34;;;;;;;42.33;24.48;;;0.90;99.90;;;;;;4956498;28;20039;-77
2023/01/08 04:13:00;;;;;;;38.42;23.15;;;0.80;99.90;;;;;;4973764;28;20027;-79
2023/01/08 04:15:26;;;;;;;33.97;20.85;;;0.80;99.90;;;;;;4973903;28;20050;-78
2023/01/08 04:17:52;;;;;;;30.35;19.15;;;0.80;99.90;;;;;;4973613;28;20468;-78
2023/01/08 04:20:18;;;;;;;42.78;26.80;;;0.80;99.90;;;;;;4956548;28;20076;-78
2023/01/08 04:22:44;;;;;;;93.05;56.40;;;0.80;99.90;;;;;;5057367;28;20105;-78
2023/01/08 04:25:09;;;;;;;42.28;25.48;;;0.80;99.90;;;;;;4973845;28;20035;-78
2023/01/08 04:27:35;;;;;;;36.35;21.38;;;0.80;99.90;;;;;;4958148;28;20026;-78
2023/01/08 04:30:01;;;;;;;36.15;20.10;;;0.70;99.90;;;;;;4975912;28;20022;-79
2023/01/08 04:32:26;;;;;;;33.78;21.92;;;0.70;99.90;;;;;;4975176;28;20430;-78
2023/01/08 04:34:52;;;;;;;32.97;20.05;;;0.70;99.90;;;;;;4993201;28;20388;-78
2023/01/08 04:37:17;;;;;;;33.38;20.73;;;0.70;99.90;;;;;;4992719;28;20073;-78
2023/01/08 04:39:43;;;;;;;33.83;21.38;;;0.70;99.90;;;;;;4993633;28;20140;-78
2023/01/08 04:42:08;;;;;;;34.95;20.92;;;0.60;99.90;;;;;;4975375;28;20029;-78
2023/01/08 04:44:34;;;;;;;33.72;19.88;;;0.70;99.90;;;;;;4975375;28;20483;-78
2023/01/08 04:47:00;;;;;;;35.22;21.80;;;0.60;99.90;;;;;;4975603;28;20030;-78
2023/01/08 04:49:25;;;;;;;35.80;23.52;;;0.60;99.90;;;;;;4992612;28;20022;-78
2023/01/08 04:51:51;;;;;;;33.97;20.63;;;0.60;99.90;;;;;;4975394;28;20125;-78
2023/01/08 04:54:16;;;;;;;37.63;20.88;;;0.60;99.90;;;;;;4992604;28;20026;-78
2023/01/08 04:56:42;;;;;;;32.97;20.73;;;0.60;99.90;;;;;;4992758;28;20088;-77
2023/01/08 04:59:07;;;;;;;37.58;22.42;;;0.50;99.90;;;;;;4975121;28;20105;-78
2023/01/08 05:01:33;;;;;;;36.28;22.38;;;0.50;99.90;;;;;;4992670;28;20022;-79
2023/01/08 05:04:02;;;;;;;31.55;21.90;;;0.50;99.90;;;;;;4974934;28;20027;-78
2023/01/08 05:06:30;;;;;;;32.38;20.83;;;0.50;99.90;;;;;;4975190;28;20034;-78
2023/01/08 05:08:56;;;;;;;32.40;20.55;;;0.50;99.90;;;;;;4975143;28;20042;-78
2023/01/08 05:11:22;;;;;;;32.97;19.48;;;0.40;99.90;;;;;;4992467;28;20073;-78
2023/01/08 05:13:49;;;;;;;32.15;20.42;;;0.40;99.90;;;;;;4974962;28;20121;-77
2023/01/08 05:16:16;;;;;;;32.33;20.45;;;0.40;99.90;;;;;;4974261;28;20030;-77
2023/01/08 05:18:42;;;;;;;31.60;18.83;;;0.40;99.90;;;;;;4992188;28;20031;-78
2023/01/08 05:21:07;;;;;;;40.50;23.20;;;0.40;99.90;;;;;;4992360;28;20030;-78
2023/01/08 05:23:33;;;;;;;31.50;21.75;;;0.40;99.90;;;;;;4974729;28;20018;-77
2023/01/08 05:26:00;;;;;;;29.27;18.60;;;0.40;99.90;;;;;;4992440;28;20066;-78
2023/01/08 05:28:26;;;;;;;30.80;19.42;;;0.40;99.90;;;;;;5006242;28;20026;-77
2023/01/08 05:30:52;;;;;;;32.28;19.33;;;0.40;99.90;;;;;;5059483;28;20439;-78
2023/01/08 05:33:18;;;;;;;30.75;19.17;;;0.40;99.90;;;;;;5022307;28;20057;-78
2023/01/08 05:35:44;;;;;;;29.73;19.08;;;0.30;99.90;;;;;;4955597;28;20047;-77
2023/01/08 05:38:09;;;;;;;30.95;19.23;;;0.30;99.90;;;;;;4965996;28;20044;-77
2023/01/08 05:40:35;;;;;;;32.15;19.33;;;0.30;99.90;;;;;;4990889;28;20030;-78
2023/01/08 05:43:01;;;;;;;29.75;19.10;;;0.30;99.90;;;;;;4985428;28;20042;-78
2023/01/08 05:45:26;;;;;;;32.55;20.83;;;0.30;99.90;;;;;;4972561;28;20126;-77
2023/01/08 05:47:53;;;;;;;34.58;21.85;;;0.30;99.90;;;;;;4954944;28;20530;-78
2023/01/08 05:50:19;;;;;;;29.35;18.40;;;0.30;99.90;;;;;;4955359;28;20015;-78
2023/01/08 05:52:44;;;;;;;32.42;20.25;;;0.30;99.90;;;;;;4972304;28;20038;-78
2023/01/08 05:55:10;;;;;;;33.42;20.90;;;0.30;99.90;;;;;;4972509;28;20092;-78
2023/01/08 05:57:36;;;;;;;29.50;19.10;;;0.20;99.90;;;;;;4954770;28;20072;-78
2023/01/08 06:00:04;;;;;;;33.38;20.70;;;0.20;99.90;;;;;;4972419;28;20027;-77
2023/01/08 06:02:29;;;;;;;31.83;19.45;;;0.20;99.90;;;;;;4971861;28;20122;-78
2023/01/08 06:04:55;;;;;;;34.35;21.13;;;0.20;99.90;;;;;;4955086;28;20117;-78
2023/01/08 06:07:20;;;;;;;33.50;22.15;;;0.20;99.90;;;;;;4954613;28;20035;-78
2023/01/08 06:09:46;;;;;;;35.38;21.17;;;0.20;99.90;;;;;;4972090;28;20031;-78
2023/01/08 06:12:11;;;;;;;36.85;22.35;;;0.20;99.90;;;;;;4972142;28;20160;-78
2023/01/08 06:14:37;;;;;;;36.80;22.42;;;0.20;99.90;;;;;;4972058;28;20052;-78
2023/01/08 06:17:03;;;;;;;37.10;22.95;;;0.10;99.90;;;;;;4954882;28;20034;-78
2023/01/08 06:19:28;;;;;;;43.58;25.58;;;0.10;99.90;;;;;;4971852;28;20030;-78
2023/01/08 06:21:54;;;;;;;41.85;23.73;;;0.10;99.90;;;;;;4972159;28;20027;-77
2023/01/08 06:24:19;;;;;;;36.03;22.33;;;0.10;99.90;;;;;;5054938;28;20041;-77
2023/01/08 06:26:45;;;;;;;36.78;21.83;;;0.10;99.90;;;;;;4971866;28;20122;-77
2023/01/08 06:29:10;;;;;;;39.15;22.23;;;0.10;99.90;;;;;;4968789;28;20026;-78
2023/01/08 06:31:36;;;;;;;33.33;21.40;;;0.10;99.90;;;;;;4973986;28;20034;-78
2023/01/08 06:34:01;;;;;;;32.42;19.60;;;0.10;99.90;;;;;;4990926;28;20030;-78
2023/01/08 06:36:27;;;;;;;33.10;19.77;;;0.10;99.90;;;;;;4991354;28;20521;-78
2023/01/08 06:38:54;;;;;;;30.50;19.30;;;0.10;99.90;;;;;;4990949;28;20035;-77
2023/01/08 06:41:20;;;;;;;91.05;42.65;;;0.10;99.90;;;;;;4990044;28;20026;-78
2023/01/08 06:43:46;;;;;;;37.15;21.50;;;0.10;99.90;;;;;;4978470;28;20110;-78
2023/01/08 06:46:11;;;;;;;32.03;19.02;;;0.10;99.90;;;;;;4954466;28;20422;-78
2023/01/08 06:48:37;;;;;;;33.97;22.15;;;0.10;99.90;;;;;;4953752;28;20031;-78
2023/01/08 06:51:03;;;;;;;30.48;19.20;;;0.10;99.90;;;;;;4954644;28;20015;-77
2023/01/08 06:53:30;;;;;;;29.52;19.73;;;0.10;99.90;;;;;;4953808;28;20023;-78
2023/01/08 06:55:55;;;;;;;32.85;19.48;;;0.10;99.90;;;;;;4954468;28;20638;-79
2023/01/08 06:58:22;;;;;;;30.55;18.60;;;0.10;99.90;;;;;;4953838;28;20169;-77
2023/01/08 07:00:47;;;;;;;31.40;18.83;;;0.10;99.90;;;;;;4954212;28;20023;-77
2023/01/08 07:03:13;;;;;;;33.20;19.48;;;0.10;99.90;;;;;;4953842;28;20030;-78
2023/01/08 07:05:38;;;;;;;31.63;19.25;;;0.10;99.90;;;;;;4961194;28;20031;-78
2023/01/08 07:08:04;;;;;;;32.78;19.77;;;0.20;99.90;;;;;;5032150;28;20084;-77
2023/01/08 07:10:30;;;;;;;32.72;20.15;;;0.10;99.90;;;;;;4953956;28;20562;-77
2023/01/08 07:12:56;;;;;;;34.38;21.27;;;0.20;99.90;;;;;;4971126;28;20050;-78
2023/01/08 07:15:22;;;;;;;30.85;18.75;;;0.20;99.90;;;;;;4954109;28;20027;-77
2023/01/08 07:17:47;;;;;;;32.20;20.08;;;0.20;99.90;;;;;;4970881;28;20027;-77
2023/01/08 07:20:13;;;;;;;32.53;21.23;;;0.20;99.90;;;;;;4954105;28;20068;-78
2023/01/08 07:22:39;;;;;;;33.25;22.15;;;0.30;99.90;;;;;;4971009;28;20045;-77
2023/01/08 07:25:06;;;;;;;40.05;23.42;;;0.30;99.90;;;;;;4971105;28;20039;-78
2023/01/08 07:27:31;;;;;;;33.97;20.58;;;0.30;99.90;;;;;;4973608;28;20037;-77
2023/01/08 07:29:57;;;;;;;39.35;20.33;;;0.40;99.90;;;;;;4990617;28;20022;-78
2023/01/08 07:32:23;;;;;;;33.95;20.98;;;0.40;99.90;;;;;;4972931;28;20026;-78
2023/01/08 07:34:48;;;;;;;32.90;21.35;;;0.50;99.90;;;;;;4990507;28;20075;-77
2023/01/08 07:37:14;;;;;;;33.30;21.20;;;0.50;99.90;;;;;;4990229;28;20037;-78
2023/01/08 07:39:39;;;;;;;34.97;20.67;;;0.60;99.90;;;;;;4972757;28;20027;-77
2023/01/08 07:42:05;;;;;;;33.47;20.90;;;0.60;99.90;;;;;;4957194;28;20131;-78
2023/01/08 07:44:30;;;;;;;36.83;24.23;;;0.70;99.90;;;;;;4956686;28;20041;-78
2023/01/08 07:46:56;;;;;;;44.03;23.85;;;0.70;99.90;;;;;;4957258;28;20053;-78
2023/01/08 07:49:22;;;;;;;34.60;23.17;;;0.80;99.90;;;;;;4974172;28;20026;-77
2023/01/08 07:51:50;;;;;;;32.40;18.40;;;0.90;99.90;;;;;;4957177;28;20499;-77
2023/01/08 07:54:16;;;;;;;25.63;17.33;;;0.90;99.90;;;;;;4974091;28;20077;-77
2023/01/08 07:56:41;;;;;;;24.88;17.60;;;1.00;99.90;;;;;;5058006;28;20023;-78
2023/01/08 07:59:07;;;;;;;26.20;17.05;;;1.00;99.90;;;;;;5059726;28;20063;-79
2023/01/08 08:01:33;;;;;;;26.60;19.02;;;1.10;99.90;;;;;;5096525;28;20042;-78
2023/01/08 08:03:58;;;;;;;29.40;18.10;;;1.20;99.90;;;;;;5007495;28;20031;-77
2023/01/08 08:06:24;;;;;;;29.20;18.95;;;1.30;99.90;;;;;;4974290;28;20077;-78
2023/01/08 08:08:49;;;;;;;32.67;20.88;;;1.40;99.90;;;;;;4956453;28;20023;-78
2023/01/08 08:11:15;;;;;;;33.55;20.88;;;1.50;99.90;;;;;;4974023;28;20542;-77
2023/01/08 08:13:43;;;;;;;35.47;23.27;;;1.50;99.90;;;;;;4973684;28;20042;-77
2023/01/08 08:16:10;;;;;;;37.50;23.13;;;1.70;99.90;;;;;;4973899;28;20029;-77
2023/01/08 08:18:36;;;;;;;41.45;23.65;;;1.80;99.90;;;;;;4979161;28;20031;-77
2023/01/08 08:21:02;;;;;;;40.10;22.17;;;1.80;99.90;;;;;;4956712;28;20034;-76
2023/01/08 08:23:28;;;;;;;36.67;21.02;;;1.90;99.90;;;;;;4956160;28;20384;-78
2023/01/08 08:25:54;;;;;;;31.27;21.13;;;1.90;99.90;;;;;;4956419;28;20035;-78
2023/01/08 08:28:19;;;;;;;30.58;18.83;;;2.00;99.90;;;;;;4982824;28;20030;-78
2023/01/08 08:30:45;;;;;;;32.85;20.48;;;2.00;99.90;;;;;;5011550;28;20045;-79
2023/01/08 08:33:11;;;;;;;30.88;20.33;;;2.10;99.90;;;;;;5028799;28;20019;-79
2023/01/08 08:35:38;;;;;;;33.20;20.88;;;2.20;99.90;;;;;;4973640;28;20035;-78
2023/01/08 08:38:04;;;;;;;30.08;19.35;;;2.20;99.90;;;;;;4957111;28;20027;-77
2023/01/08 08:40:30;;;;;;;29.70;18.70;;;2.30;99.90;;;;;;4973503;28;20046;-78
2023/01/08 08:42:57;;;;;;;33.78;21.02;;;2.30;99.90;;;;;;4972301;28;20102;-77
2023/01/08 08:45:22;;;;;;;33.42;19.40;;;2.40;99.90;;;;;;4954167;28;20042;-79
2023/01/08 08:47:48;;;;;;;33.95;20.98;;;2.50;99.90;;;;;;4971396;28;20047;-79
2023/01/08 08:50:13;;;;;;;35.47;20.77;;;2.60;99.90;;;;;;4971188;28;20102;-79
2023/01/08 08:52:39;;;;;;;34.10;20.95;;;2.70;99.90;;;;;;4971364;28;20023;-78
2023/01/08 08:55:05;;;;;;;34.50;20.80;;;2.70;99.90;;;;;;4971800;28;20080;-79
2023/01/08 08:57:31;;;;;;;30.42;19.67;;;2.80;99.90;;;;;;4953821;28;20431;-79
2023/01/08 08:59:57;;;;;;;31.77;19.70;;;2.90;99.90;;;;;;4955953;28;20077;-79
2023/01/08 09:02:22;;;;;;;29.60;19.13;;;2.90;99.90;;;;;;4956027;28;20054;-77
2023/01/08 09:04:48;;;;;;;25.73;17.33;;;3.00;99.90;;;;;;4992289;28;20039;-78
2023/01/08 09:07:14;;;;;;;29.10;19.48;;;3.00;99.90;;;;;;4974568;28;20379;-79
2023/01/08 09:09:39;;;;;;;29.45;18.58;;;2.90;99.90;;;;;;4974878;28;20058;-78
2023/01/08 09:12:06;;;;;;;27.92;18.75;;;2.90;99.90;;;;;;4974957;28;20026;-79
2023/01/08 09:14:31;;;;;;;29.83;18.10;;;3.00;99.90;;;;;;4974559;28;20485;-78
2023/01/08 09:16:57;;;;;;;29.20;18.23;;;3.10;99.90;;;;;;4991971;28;20114;-77
2023/01/08 09:19:22;;;;;;;25.08;17.33;;;3.10;99.90;;;;;;4974407;28;20068;-79
2023/01/08 09:21:49;;;;;;;31.65;18.15;;;3.10;99.90;;;;;;4974885;28;20027;-77
2023/01/08 09:24:15;;;;;;;31.27;19.00;;;3.20;99.90;;;;;;4988105;28;20993;-78
2023/01/08 09:26:41;;;;;;;32.53;19.45;;;3.30;99.90;;;;;;4991907;28;20053;-79
2023/01/08 09:29:07;;;;;;;28.75;18.60;;;3.30;99.90;;;;;;4963988;28;20054;-79
2023/01/08 09:31:33;;;;;;;33.10;21.00;;;3.30;99.90;;;;;;4955146;28;20047;-77
2023/01/08 09:33:59;;;;;;;34.10;19.75;;;3.40;99.90;;;;;;4993241;28;20497;-80
2023/01/08 09:36:24;;;;;;;26.60;17.63;;;3.40;99.90;;;;;;5017169;28;20160;-78
2023/01/08 09:38:50;;;;;;;27.98;18.63;;;3.50;99.90;;;;;;5042076;28;20086;-79
2023/01/08 09:41:20;;;;;;;20.20;14.18;;;3.50;99.90;;;;;;5021640;28;20019;-79
2023/01/08 09:43:49;;;;;;;22.80;14.60;;;3.60;99.90;;;;;;5036077;28;20035;-77
2023/01/08 09:46:17;;;;;;;20.27;14.18;;;3.60;99.90;;;;;;5017050;28;20402;-77
2023/01/08 09:48:44;;;;;;;18.17;13.75;;;3.70;99.90;;;;;;5074815;28;20016;-77
2023/01/08 09:51:14;;;;;;;19.25;14.00;;;3.70;99.90;;;;;;5075694;28;20020;-77
2023/01/08 09:53:42;;;;;;;19.55;13.88;;;3.70;99.90;;;;;;4991627;28;20058;-77
2023/01/08 09:56:15;;;;;;;20.60;14.40;;;3.80;99.90;;;;;;4989989;28;20088;-77
2023/01/08 09:58:53;;;;;;;21.20;14.55;;;3.80;99.90;;;;;;4989839;28;20031;-77
2023/01/08 10:01:22;;;;;;;19.95;14.35;;;3.90;99.90;;;;;;4987113;28;20023;-77
2023/01/08 10:03:56;;;;;;;25.50;16.15;;;3.90;99.90;;;;;;4991147;28;20133;-77
2023/01/08 10:06:22;;;;;;;22.67;14.70;;;4.00;99.90;;;;;;4990173;28;20062;-77
2023/01/08 10:08:49;;;;;;;21.15;14.70;;;4.10;99.90;;;;;;4991568;28;20041;-77
2023/01/08 10:11:16;;;;;;;20.80;14.63;;;4.10;99.90;;;;;;4990213;28;20137;-79
2023/01/08 10:13:54;;;;;;;21.30;14.15;;;4.20;99.90;;;;;;4990203;28;20027;-78
2023/01/08 10:16:36;;;;;;;23.48;14.48;;;4.20;99.90;;;;;;4991380;28;20109;-77
2023/01/08 10:19:03;;;;;;;21.70;13.77;;;4.20;99.90;;;;;;4991438;28;20434;-77
2023/01/08 10:21:38;;;;;;;18.00;13.85;;;4.20;99.90;;;;;;4991267;28;20037;-79
2023/01/08 10:24:04;;;;;;;20.95;13.27;;;4.20;99.90;;;;;;4990542;28;20022;-78
2023/01/08 10:26:35;;;;;;;21.17;14.35;;;4.20;99.90;;;;;;4973756;28;20544;-78
2023/01/08 10:29:18;;;;;;;21.77;14.52;;;4.20;99.90;;;;;;4991344;28;20026;-78
2023/01/08 10:31:57;;;;;;;26.85;16.13;;;4.30;99.90;;;;;;4991304;28;20018;-78
2023/01/08 10:34:43;;;;;;;23.05;15.23;;;4.30;99.90;;;;;;4991760;28;20054;-77
2023/01/08 10:37:23;;;;;;;25.35;15.93;;;4.40;99.90;;;;;;4973738;28;20022;-79
2023/01/08 10:39:50;;;;;;;20.17;14.25;;;4.40;99.90;;;;;;4990116;28;20079;-79
2023/01/08 10:42:17;;;;;;;20.85;13.98;;;4.50;99.90;;;;;;4989872;28;20025;-80
2023/01/08 10:44:53;;;;;;;21.10;14.23;;;4.50;99.90;;;;;;4991130;28;20066;-78
2023/01/08 10:47:19;;;;;;;17.83;13.60;;;4.50;99.90;;;;;;4990908;28;20054;-80
2023/01/08 10:49:45;;;;;;;18.35;13.63;;;4.60;99.90;;;;;;4989775;28;20054;-80
2023/01/08 10:52:24;;;;;;;23.10;15.10;;;4.60;99.90;;;;;;4989590;28;20109;-80
2023/01/08 10:54:50;;;;;;;20.58;13.52;;;4.70;99.90;;;;;;4990893;28;20495;-80
2023/01/08 10:57:26;;;;;;;19.02;14.07;;;4.70;99.90;;;;;;4989563;28;20075;-79
2023/01/08 10:59:52;;;;;;;21.17;14.43;;;4.70;99.90;;;;;;4989699;28;20468;-80
2023/01/08 11:02:33;;;;;;;24.98;13.73;;;4.80;99.90;;;;;;4989468;28;20537;-80
2023/01/08 11:05:00;;;;;;;18.73;13.25;;;5.00;99.90;;;;;;4989466;28;20180;-79
2023/01/08 11:07:26;;;;;;;18.38;13.38;;;5.10;99.90;;;;;;4989318;28;20365;-80
2023/01/08 11:09:53;;;;;;;18.48;13.88;;;5.30;99.90;;;;;;4989351;28;20046;-78
2023/01/08 11:12:38;;;;;;;17.67;12.25;;;5.40;99.90;;;;;;4990667;28;20026;-78
2023/01/08 11:15:25;;;;;;;20.05;12.50;;;5.60;99.90;;;;;;4993026;28;20018;-79
2023/01/08 11:17:51;;;;;;;17.27;11.55;;;5.70;99.90;;;;;;4992308;28;20038;-79
2023/01/08 11:20:29;;;;;;;14.48;11.60;;;5.80;99.90;;;;;;4993021;28;20022;-79
2023/01/08 11:23:14;;;;;;;15.30;11.65;;;5.90;99.90;;;;;;4992917;28;20076;-78
2023/01/08 11:25:47;;;;;;;15.07;11.02;;;5.90;99.90;;;;;;5050276;28;20051;-80
2023/01/08 11:28:20;;;;;;;13.77;10.35;;;6.00;99.90;;;;;;5046568;28;20072;-78
2023/01/08 11:30:53;;;;;;;13.52;9.93;;;6.00;99.90;;;;;;4994119;28;20027;-79
2023/01/08 11:33:24;;;;;;;14.23;9.75;;;6.10;99.90;;;;;;4993905;28;20030;-79
2023/01/08 11:35:57;;;;;;;16.00;10.43;;;6.10;99.90;;;;;;4976482;28;20036;-77
2023/01/08 11:38:23;;;;;;;14.50;10.38;;;6.10;99.90;;;;;;4993686;28;20418;-78
2023/01/08 11:40:51;;;;;;;16.13;10.45;;;6.10;99.90;;;;;;4992613;28;20087;-78
2023/01/08 11:43:50;;;;;;;12.05;9.88;;;6.20;99.90;;;;;;4993609;28;20068;-80
2023/01/08 11:47:00;;;;;;;13.55;10.32;;;6.20;99.90;;;;;;4992403;28;20563;-80
2023/01/08 11:49:44;;;;;;;15.20;10.60;;;6.20;99.90;;;;;;4933726;29;20456;-80
2023/01/08 11:52:47;;;;;;;19.23;12.80;;;6.20;99.90;;;;;;4917705;29;20177;-80
2023/01/08 11:55:28;;;;;;;16.73;11.20;;;6.20;99.90;;;;;;4974539;28;20045;-80
2023/01/08 11:58:11;;;;;;;14.15;10.43;;;6.10;99.90;;;;;;5003757;28;20057;-80
2023/01/08 12:01:16;;;;;;;13.75;9.63;;;6.10;99.90;;;;;;5028290;28;20457;-80
2023/01/08 12:03:48;;;;;;;14.13;10.55;;;6.20;99.90;;;;;;4973792;28;20034;-80
2023/01/08 12:06:38;;;;;;;15.77;11.32;;;6.20;99.90;;;;;;4973962;28;20392;-80
2023/01/08 12:09:22;;;;;;;16.00;11.32;;;6.20;99.90;;;;;;4973954;28;20027;-80
2023/01/08 12:12:01;;;;;;;15.75;10.55;;;6.20;99.90;;;;;;4956487;28;20149;-80
2023/01/08 12:14:44;;;;;;;14.95;10.50;;;6.20;99.90;;;;;;4974039;28;20035;-78
2023/01/08 12:17:22;;;;;;;14.93;9.88;;;6.20;99.90;;;;;;4974009;28;20467;-78
2023/01/08 12:19:58;;;;;;;13.10;9.63;;;6.20;99.90;;;;;;4973954;28;20030;-78
2023/01/08 12:22:31;;;;;;;17.60;11.73;;;6.30;99.90;;;;;;4973760;28;20023;-80
2023/01/08 12:25:17;;;;;;;;;;;6.30;99.90;;;;;;4956788;28;20491;-80
2023/01/08 12:28:12;;;;;;;15.63;10.18;;;6.30;99.90;;;;;;4975770;28;19905;-80
2023/01/08 12:31:03;;;;;;;14.82;11.25;;;6.30;99.90;;;;;;4993116;28;20034;-80
2023/01/08 12:33:34;;;;;;;18.35;12.02;;;6.30;99.90;;;;;;5060539;28;20041;-80
2023/01/08 12:36:07;;;;;;;18.67;12.75;;;6.20;99.90;;;;;;4993069;28;20062;-79
2023/01/08 12:38:43;;;;;;;18.38;12.65;;;6.20;99.90;;;;;;4992881;28;20475;-80
2023/01/08 12:41:15;;;;;;;23.73;13.65;;;6.20;99.90;;;;;;4993103;28;20027;-79
2023/01/08 12:43:43;;;;;;;20.37;13.50;;;6.10;99.90;;;;;;4992823;28;20037;-79
2023/01/08 12:46:12;;;;;;;22.08;14.80;;;6.10;99.90;;;;;;4992708;28;20068;-79
2023/01/08 12:48:38;;;;;;;24.60;15.02;;;6.10;99.90;;;;;;4992826;28;20058;-79